Bertopolis, Brazil
Current Conditions -  °F | °C
As of 3:00 PM on Sunday 23 Nov 2014 (Local Time) from SBPS Reporting Station
Scattered Clouds Scattered Clouds  
Wind Chill: 81°   Ceiling: Unl
Heat Index: 85°   Visibility: 6mi
Dew Point: 73°   Wind: 14mph
Humidity: 79%   Direction: 70°ENE
Pressure: 29.91"   Gusts: NA
Location:  17.06°S, 40.57°W
Report Text: SBPS 231700Z 07012KT 9999 SCT018 SCT050 27/23 Q1013
Loading
Personal Weather Stations






























Interactive Weather Map New forecast layout! Learn more

10-Day Weather Forecast

Advertisements
Track Severe Weather on mobile